| time (UTC) | temp F | wind direction | speed MPH | gust MPH | rain 1hr in | rain 24hr in | rain mn in | humidity % | barometer mb |
| 20260510173316 | 57 | 306 | 2.0 | 4.0 | 1.93 | 3.03 | 0.61 | 92 | 1008.1 |
| 20260510172831 | 57 | 306 | 2.0 | 6.0 | 1.97 | 2.99 | 0.60 | 92 | 1008.2 |
| 20260510172329 | 57 | 270 | 3.0 | 6.0 | 2.05 | 2.91 | 0.58 | 92 | 1008.2 |
| 20260510171824 | 57 | 305 | 3.0 | 4.0 | 2.09 | 2.83 | 0.57 | 92 | 1008.2 |
| 20260510171322 | 57 | 277 | 0.0 | 2.0 | 2.01 | 2.72 | 0.54 | 92 | 1008.1 |
| 20260510170818 | 57 | 277 | 1.0 | 3.0 | 1.85 | 2.56 | 0.51 | 92 | 1008.3 |
| 20260510170317 | 57 | 277 | 2.0 | 3.0 | 1.57 | 2.28 | 0.46 | 92 | 1008.3 |
| 20260510165833 | 57 | 277 | 0.0 | 2.0 | 1.22 | 1.93 | 0.39 | 91 | 1008.3 |
| 20260510165331 | 57 | 277 | 0.0 | 4.0 | 1.02 | 1.73 | 0.35 | 91 | 1008.3 |
| 20260510164847 | 57 | 275 | 3.0 | 4.0 | 0.94 | 1.61 | 0.32 | 91 | 1008.4 |
| 20260510164345 | 58 | 278 | 1.0 | 6.0 | 0.83 | 1.46 | 0.29 | 91 | 1008.4 |
| 20260510163817 | 58 | 263 | 2.0 | 6.0 | 0.67 | 1.22 | 0.24 | 91 | 1008.5 |
| 20260510163315 | 58 | 260 | 2.0 | 5.0 | 0.59 | 1.10 | 0.22 | 91 | 1008.5 |
| 20260510162830 | 58 | 275 | 1.0 | 7.0 | 0.51 | 1.02 | 0.20 | 91 | 1008.5 |
| 20260510162330 | 58 | 268 | 2.0 | 5.0 | 0.35 | 0.83 | 0.17 | 91 | 1008.5 |
| 20260510161821 | 58 | 275 | 1.0 | 4.0 | 0.31 | 0.75 | 0.15 | 91 | 1008.4 |
| 20260510161337 | 58 | 263 | 2.0 | 4.0 | 0.31 | 0.71 | 0.14 | 91 | 1008.5 |
| 20260510160831 | 58 | 259 | 2.0 | 4.0 | 0.31 | 0.71 | 0.14 | 91 | 1008.6 |
| 20260510160329 | 59 | 247 | 2.0 | 5.0 | 0.35 | 0.71 | 0.14 | 91 | 1008.6 |
| 20260510155824 | 59 | 286 | 3.0 | 4.0 | 0.39 | 0.71 | 0.14 | 90 | 1008.7 |
| 20260510155342 | 59 | 277 | 1.0 | 2.0 | 0.43 | 0.71 | 0.14 | 90 | 1008.7 |
| 20260510154816 | 59 | 277 | 0.0 | 1.0 | 0.43 | 0.67 | 0.13 | 90 | 1008.8 |
| 20260510154314 | 59 | 277 | 0.0 | 2.0 | 0.39 | 0.63 | 0.13 | 90 | 1008.8 |
| 20260510153829 | 59 | 277 | 0.0 | 4.0 | 0.31 | 0.55 | 0.11 | 89 | 1008.9 |
| 20260510153327 | 59 | 277 | 2.0 | 4.0 | 0.28 | 0.51 | 0.10 | 89 | 1008.9 |
| 20260510152822 | 59 | 271 | 2.0 | 3.0 | 0.28 | 0.51 | 0.10 | 90 | 1009.0 |
| 20260510152318 | 59 | 272 | 3.0 | 3.0 | 0.28 | 0.47 | 0.09 | 90 | 1009.1 |
| 20260510151833 | 59 | 259 | 2.0 | 3.0 | 0.24 | 0.43 | 0.09 | 89 | 1009.1 |
| 20260510151329 | 59 | 259 | 1.0 | 6.0 | 0.20 | 0.39 | 0.08 | 89 | 1009.2 |
| 20260510150827 | 59 | 262 | 4.0 | 6.0 | 0.20 | 0.35 | 0.07 | 89 | 1009.2 |
| 20260510150325 | 59 | 275 | 2.0 | 7.0 | 0.20 | 0.35 | 0.07 | 89 | 1009.4 |
| 20260510145821 | 59 | 275 | 3.0 | 7.0 | 0.20 | 0.31 | 0.06 | 89 | 1009.4 |
| 20260510145318 | 60 | 209 | 1.0 | 5.0 | 0.16 | 0.28 | 0.06 | 89 | 1009.5 |
| 20260510144816 | 60 | 211 | 1.0 | 5.0 | 0.12 | 0.24 | 0.05 | 89 | 1009.5 |
| 20260510144314 | 60 | 205 | 4.0 | 5.0 | 0.16 | 0.24 | 0.05 | 89 | 1009.6 |
| 20260510143829 | 60 | 208 | 1.0 | 4.0 | 0.16 | 0.24 | 0.05 | 89 | 1009.6 |
| 20260510143347 | 60 | 190 | 3.0 | 8.0 | 0.16 | 0.24 | 0.05 | 89 | 1009.7 |
| 20260510142821 | 60 | 167 | 4.0 | 8.0 | 0.12 | 0.20 | 0.04 | 89 | 1009.7 |
| 20260510142319 | 60 | 146 | 4.0 | 8.0 | 0.12 | 0.20 | 0.04 | 89 | 1009.7 |
| 20260510141816 | 60 | 211 | 4.0 | 8.0 | 0.12 | 0.20 | 0.04 | 89 | 1009.8 |
| 20260510141313 | 60 | 183 | 5.0 | 7.0 | 0.08 | 0.16 | 0.03 | 88 | 1009.8 |
| 20260510140828 | 61 | 174 | 6.0 | 8.0 | 0.08 | 0.16 | 0.03 | 88 | 1009.9 |
| 20260510140325 | 61 | 189 | 5.0 | 8.0 | 0.08 | 0.16 | 0.03 | 87 | 1009.8 |
| 20260510135823 | 61 | 151 | 2.0 | 4.0 | 0.04 | 0.12 | 0.02 | 88 | 1009.8 |
| 20260510135322 | 61 | 194 | 1.0 | 4.0 | 0.04 | 0.12 | 0.02 | 87 | 1009.9 |
| 20260510134816 | 61 | 188 | 2.0 | 4.0 | 0.04 | 0.12 | 0.02 | 87 | 1009.9 |
| 20260510134315 | 62 | 163 | 1.0 | 5.0 | 0.00 | 0.08 | 0.02 | 86 | 1009.9 |
| 20260510133833 | 62 | 187 | 2.0 | 4.0 | 0.00 | 0.08 | 0.02 | 86 | 1010.0 |
| 20260510133331 | 62 | 177 | 1.0 | 4.0 | 0.00 | 0.08 | 0.02 | 86 | 1010.0 |
| 20260510132825 | 62 | 175 | 3.0 | 4.0 | 0.04 | 0.08 | 0.02 | 85 | 1010.0 |
| 20260510132323 | 62 | 200 | 2.0 | 5.0 | 0.04 | 0.08 | 0.02 | 84 | 1009.9 |
| 20260510131818 | 62 | 249 | 3.0 | 5.0 | 0.04 | 0.08 | 0.02 | 83 | 1010.0 |
| 20260510131317 | 63 | 281 | 2.0 | 7.0 | 0.04 | 0.08 | 0.02 | 83 | 1010.1 |
| 20260510130841 | 63 | 311 | 3.0 | 7.0 | 0.04 | 0.08 | 0.02 | 82 | 1010.1 |
| 20260510130318 | 63 | 270 | 4.0 | 7.0 | 0.04 | 0.08 | 0.02 | 82 | 1010.1 |
| 20260510125857 | 63 | 171 | 2.0 | 4.0 | 0.04 | 0.08 | 0.02 | 84 | 1010.0 |
| 20260510125354 | 63 | 266 | 2.0 | 4.0 | 0.04 | 0.08 | 0.02 | 84 | 1010.1 |
| 20260510124828 | 63 | 302 | 3.0 | 4.0 | 0.04 | 0.08 | 0.02 | 84 | 1010.0 |
| 20260510124348 | 63 | 278 | 2.0 | 6.0 | 0.04 | 0.08 | 0.02 | 84 | 1010.1 |
| 20260510123821 | 63 | 321 | 3.0 | 8.0 | 0.08 | 0.08 | 0.02 | 84 | 1010.1 |
| 20260510123319 | 62 | 333 | 3.0 | 8.0 | 0.08 | 0.08 | 0.02 | 84 | 1010.1 |
| 20260510122835 | 62 | 316 | 5.0 | 8.0 | 0.04 | 0.04 | 0.01 | 84 | 1010.1 |
| 20260510122354 | 62 | 329 | 2.0 | 7.0 | 0.04 | 0.04 | 0.01 | 84 | 1010.1 |
| 20260510121826 | 62 | 295 | 3.0 | 7.0 | 0.04 | 0.04 | 0.01 | 83 | 1010.1 |
| 20260510121323 | 62 | 296 | 4.0 | 8.0 | 0.04 | 0.04 | 0.01 | 82 | 1010.2 |
| 20260510120818 | 62 | 272 | 4.0 | 8.0 | 0.04 | 0.04 | 0.01 | 84 | 1010.2 |
| 20260510120316 | 62 | 308 | 4.0 | 6.0 | 0.04 | 0.04 | 0.01 | 84 | 1010.3 |
| 20260510115831 | 62 | 298 | 3.0 | 7.0 | 0.04 | 0.04 | 0.01 | 84 | 1010.3 |
| 20260510115328 | 62 | 306 | 3.0 | 6.0 | 0.04 | 0.04 | 0.01 | 84 | 1010.5 |
| 20260510114825 | 62 | 316 | 3.0 | 5.0 | 0.04 | 0.04 | 0.01 | 84 | 1010.5 |
| 20260510114344 | 62 | 304 | 3.0 | 5.0 | 0.04 | 0.04 | 0.01 | 83 | 1010.6 |
| 20260510113819 | 62 | 301 | 3.0 | 6.0 | 0.00 | 0.00 | 0.00 | 82 | 1010.6 |
| 20260510113317 | 62 | 312 | 4.0 | 7.0 | 0.00 | 0.00 | 0.00 | 81 | 1010.7 |
| 20260510112832 | 62 | 293 | 2.0 | 6.0 | 0.00 | 0.00 | 0.00 | 81 | 1010.7 |
| 20260510112350 | 62 | 270 | 2.0 | 4.0 | 0.00 | 0.00 | 0.00 | 79 | 1010.8 |
| 20260510111842 | 62 | 192 | 0.0 | 2.0 | 0.00 | 0.00 | 0.00 | 78 | 1010.9 |
| 20260510111317 | 62 | 192 | 0.0 | 6.0 | 0.00 | 0.00 | 0.00 | 79 | 1011.0 |
| 20260510110815 | 62 | 192 | 3.0 | 6.0 | 0.00 | 0.00 | 0.00 | 78 | 1011.0 |
| 20260510110314 | 62 | 168 | 4.0 | 6.0 | 0.00 | 0.00 | 0.00 | 77 | 1011.1 |
| 20260510105829 | 63 | 164 | 3.0 | 5.0 | 0.00 | 0.00 | 0.00 | 77 | 1011.1 |
| 20260510105328 | 63 | 171 | 5.0 | 5.0 | 0.00 | 0.00 | 0.00 | 77 | 1011.1 |
| 20260510104824 | 63 | 171 | 3.0 | 7.0 | 0.00 | 0.00 | 0.00 | 76 | 1011.2 |
| 20260510104321 | 63 | 133 | 4.0 | 7.0 | 0.00 | 0.00 | 0.00 | 76 | 1011.2 |
| 20260510103817 | 63 | 141 | 3.0 | 10.0 | 0.00 | 0.00 | 0.00 | 75 | 1011.3 |
| 20260510103315 | 63 | 138 | 6.0 | 10.0 | 0.00 | 0.00 | 0.00 | 74 | 1011.3 |
| 20260510102832 | 63 | 158 | 5.0 | 9.0 | 0.00 | 0.00 | 0.00 | 74 | 1011.3 |
| 20260510102329 | 64 | 144 | 3.0 | 9.0 | 0.00 | 0.00 | 0.00 | 75 | 1011.4 |
| 20260510101827 | 63 | 142 | 3.0 | 6.0 | 0.00 | 0.00 | 0.00 | 76 | 1011.4 |
| 20260510101323 | 63 | 127 | 3.0 | 6.0 | 0.00 | 0.00 | 0.00 | 76 | 1011.4 |
| 20260510100839 | 63 | 169 | 2.0 | 6.0 | 0.00 | 0.00 | 0.00 | 74 | 1011.4 |
| 20260510100315 | 62 | 113 | 3.0 | 7.0 | 0.00 | 0.00 | 0.00 | 76 | 1011.4 |
| 20260510095854 | 61 | 142 | 4.0 | 7.0 | 0.00 | 0.00 | 0.00 | 78 | 1011.4 |
| 20260510095332 | 61 | 98 | 3.0 | 8.0 | 0.00 | 0.00 | 0.00 | 80 | 1011.4 |
| 20260510094827 | 61 | 114 | 2.0 | 5.0 | 0.00 | 0.00 | 0.00 | 79 | 1011.4 |
| 20260510094324 | 61 | 105 | 3.0 | 7.0 | 0.00 | 0.00 | 0.00 | 78 | 1011.4 |
| 20260510093818 | 61 | 109 | 3.0 | 7.0 | 0.00 | 0.00 | 0.00 | 77 | 1011.4 |
| 20260510093339 | 60 | 113 | 3.0 | 7.0 | 0.00 | 0.00 | 0.00 | 77 | 1011.4 |
| 20260510092855 | 60 | 104 | 4.0 | 6.0 | 0.00 | 0.00 | 0.00 | 78 | 1011.4 |
| 20260510092352 | 60 | 124 | 3.0 | 6.0 | 0.00 | 0.00 | 0.00 | 76 | 1011.4 |
| 20260510091826 | 61 | 119 | 3.0 | 6.0 | 0.00 | 0.00 | 0.00 | 77 | 1011.4 |
| 20260510091325 | 61 | 111 | 3.0 | 6.0 | 0.00 | 0.00 | 0.00 | 76 | 1011.3 |
| 20260510090819 | 61 | 84 | 3.0 | 6.0 | 0.00 | 0.00 | 0.00 | 77 | 1011.2 |
| 20260510090315 | 61 | 74 | 2.0 | 5.0 | 0.00 | 0.00 | 0.00 | 77 | 1011.2 |
| 20260510085818 | 61 | 113 | 1.0 | 5.0 | 0.00 | 0.00 | 0.00 | 77 | 1011.2 |
| 20260510085317 | 61 | 68 | 3.0 | 5.0 | 0.00 | 0.00 | 0.00 | 77 | 1011.3 |
| 20260510084833 | 60 | 78 | 3.0 | 5.0 | 0.00 | 0.00 | 0.00 | 79 | 1011.3 |
| 20260510084349 | 60 | 83 | 2.0 | 7.0 | 0.00 | 0.00 | 0.00 | 77 | 1011.2 |
| 20260510083824 | 60 | 61 | 3.0 | 9.0 | 0.00 | 0.00 | 0.00 | 78 | 1011.2 |
| 20260510083321 | 60 | 57 | 5.0 | 9.0 | 0.00 | 0.00 | 0.00 | 78 | 1011.2 |
| 20260510082818 | 60 | 47 | 2.0 | 6.0 | 0.00 | 0.00 | 0.00 | 78 | 1011.2 |
| 20260510082316 | 60 | 51 | 4.0 | 6.0 | 0.00 | 0.00 | 0.00 | 79 | 1011.2 |
| 20260510081832 | 60 | 70 | 3.0 | 6.0 | 0.00 | 0.00 | 0.00 | 77 | 1011.3 |
| 20260510081330 | 61 | 94 | 2.0 | 7.0 | 0.00 | 0.00 | 0.00 | 77 | 1011.3 |
| 20260510080828 | 60 | 107 | 3.0 | 6.0 | 0.00 | 0.00 | 0.00 | 76 | 1011.3 |
| 20260510080324 | 60 | 84 | 4.0 | 7.0 | 0.00 | 0.00 | 0.00 | 76 | 1011.4 |
| 20260510075818 | 61 | 93 | 4.0 | 7.0 | 0.00 | 0.00 | 0.00 | 77 | 1011.4 |
| 20260510075317 | 61 | 98 | 5.0 | 8.0 | 0.00 | 0.00 | 0.00 | 78 | 1011.4 |
| 20260510074832 | 61 | 80 | 3.0 | 8.0 | 0.00 | 0.00 | 0.00 | 75 | 1011.3 |
| 20260510074331 | 61 | 67 | 4.0 | 9.0 | 0.00 | 0.00 | 0.00 | 77 | 1011.4 |
| 20260510073827 | 60 | 79 | 5.0 | 9.0 | 0.00 | 0.00 | 0.00 | 76 | 1011.2 |
| 20260510073326 | 60 | 65 | 3.0 | 7.0 | 0.00 | 0.00 | 0.00 | 79 | 1011.2 |
| 20260510072820 | 60 | 82 | 3.0 | 5.0 | 0.00 | 0.00 | 0.00 | 79 | 1011.3 |
| 20260510072316 | 60 | 68 | 2.0 | 6.0 | 0.00 | 0.00 | 0.00 | 78 | 1011.2 |
| 20260510071832 | 60 | 111 | 4.0 | 6.0 | 0.00 | 0.00 | 0.00 | 77 | 1011.2 |
| 20260510071331 | 59 | 125 | 1.0 | 4.0 | 0.00 | 0.00 | 0.00 | 78 | 1011.2 |
| 20260510070826 | 59 | 126 | 1.0 | 4.0 | 0.00 | 0.00 | 0.00 | 78 | 1011.1 |
| 20260510070325 | 59 | 97 | 1.0 | 4.0 | 0.00 | 0.00 | 0.00 | 77 | 1011.1 |
| 20260510065942 | 59 | 134 | 2.0 | 7.0 | 0.00 | 0.00 | 0.00 | 77 | 1011.1 |
| 20260510065346 | 59 | 131 | 5.0 | 7.0 | 0.00 | 0.00 | 0.00 | 76 | 1011.2 |
| 20260510064820 | 59 | 80 | 3.0 | 8.0 | 0.00 | 0.00 | 0.00 | 76 | 1011.0 |
| 20260510064319 | 59 | 74 | 4.0 | 8.0 | 0.00 | 0.00 | 0.00 | 76 | 1010.9 |
| 20260510063815 | 59 | 69 | 1.0 | 8.0 | 0.00 | 0.00 | 0.00 | 76 | 1011.0 |
| 20260510063314 | 59 | 105 | 3.0 | 8.0 | 0.00 | 0.00 | 0.00 | 76 | 1011.0 |
| 20260510062817 | 59 | 113 | 3.0 | 6.0 | 0.00 | 0.00 | 0.00 | 76 | 1011.0 |
| 20260510062336 | 59 | 84 | 3.0 | 9.0 | 0.00 | 0.00 | 0.00 | 77 | 1011.0 |
| 20260510061833 | 59 | 105 | 5.0 | 10.0 | 0.00 | 0.00 | 0.00 | 77 | 1011.0 |
| 20260510061330 | 59 | 67 | 4.0 | 10.0 | 0.00 | 0.00 | 0.00 | 77 | 1010.9 |
| 20260510060825 | 59 | 39 | 5.0 | 10.0 | 0.00 | 0.00 | 0.00 | 79 | 1010.9 |
| 20260510060322 | 58 | 27 | 4.0 | 8.0 | 0.00 | 0.00 | 0.00 | 79 | 1010.8 |
| 20260510055835 | 58 | 75 | 2.0 | 7.0 | 0.00 | 0.00 | 0.00 | 79 | 1010.9 |
| 20260510055351 | 58 | 61 | 4.0 | 9.0 | 0.00 | 0.00 | 0.00 | 80 | 1010.9 |
| 20260510054825 | 57 | 42 | 5.0 | 9.0 | 0.00 | 0.00 | 0.00 | 79 | 1010.9 |
| 20260510054322 | 57 | 47 | 4.0 | 7.0 | 0.00 | 0.00 | 0.00 | 79 | 1011.0 |
| 20260510053816 | 57 | 46 | 5.0 | 8.0 | 0.00 | 0.00 | 0.00 | 80 | 1011.0 |
| 20260510053335 | 57 | 72 | 5.0 | 8.0 | 0.00 | 0.00 | 0.00 | 80 | 1011.1 |
| 20260510052831 | 57 | 59 | 4.0 | 8.0 | 0.00 | 0.00 | 0.00 | 80 | 1011.1 |
| 20260510052328 | 56 | 94 | 3.0 | 10.0 | 0.00 | 0.00 | 0.00 | 80 | 1011.1 |
| 20260510051842 | 56 | 93 | 5.0 | 10.0 | 0.00 | 0.00 | 0.00 | 80 | 1011.1 |
| 20260510051337 | 56 | 77 | 5.0 | 9.0 | 0.00 | 0.00 | 0.00 | 81 | 1011.1 |
| 20260510050833 | 56 | 17 | 4.0 | 8.0 | 0.00 | 0.00 | 0.00 | 81 | 1011.0 |
| 20260510050330 | 56 | 50 | 4.0 | 8.0 | 0.00 | 0.00 | 0.00 | 81 | 1011.1 |
| 20260510045826 | 56 | 72 | 2.0 | 6.0 | 0.00 | 0.00 | 0.00 | 80 | 1011.1 |
| 20260510045323 | 56 | 53 | 3.0 | 7.0 | 0.00 | 0.00 | 0.00 | 80 | 1011.2 |
| 20260510044820 | 55 | 58 | 4.0 | 8.0 | 0.00 | 0.00 | 0.00 | 81 | 1011.3 |
| 20260510044317 | 55 | 59 | 3.0 | 7.0 | 0.00 | 0.00 | 0.00 | 81 | 1011.2 |
| 20260510043814 | 55 | 59 | 1.0 | 6.0 | 0.00 | 0.00 | 0.00 | 81 | 1011.2 |
| 20260510043314 | 55 | 50 | 2.0 | 6.0 | 0.00 | 0.00 | 0.00 | 81 | 1011.2 |
| 20260510042830 | 55 | 47 | 4.0 | 5.0 | 0.00 | 0.00 | 0.00 | 81 | 1011.2 |
| 20260510042328 | 55 | 52 | 2.0 | 5.0 | 0.00 | 0.00 | 0.00 | 80 | 1011.2 |
| 20260510041823 | 55 | 57 | 1.0 | 5.0 | 0.00 | 0.00 | 0.00 | 80 | 1011.2 |
| 20260510041320 | 55 | 50 | 3.0 | 6.0 | 0.00 | 0.00 | 0.00 | 80 | 1011.2 |
| 20260510040835 | 55 | 90 | 3.0 | 6.0 | 0.00 | 0.00 | 0.00 | 80 | 1011.2 |
| 20260510040313 | 55 | 65 | 3.0 | 5.0 | 0.00 | 0.00 | 0.00 | 81 | 1011.3 |
| 20260510035828 | 56 | 45 | 2.0 | 5.0 | 0.00 | 0.00 | 0.00 | 80 | 1011.4 |
| 20260510035328 | 56 | 41 | 2.0 | 4.0 | 0.00 | 0.00 | 0.00 | 80 | 1011.4 |
| 20260510034826 | 56 | 78 | 2.0 | 6.0 | 0.00 | 0.00 | 0.00 | 80 | 1011.4 |
| 20260510034322 | 56 | 68 | 3.0 | 6.0 | 0.00 | 0.00 | 0.00 | 79 | 1011.5 |
| 20260510033818 | 56 | 54 | 3.0 | 6.0 | 0.00 | 0.00 | 0.00 | 80 | 1011.5 |
| 20260510033315 | 55 | 63 | 3.0 | 9.0 | 0.00 | 0.00 | 0.00 | 80 | 1011.4 |
| 20260510032858 | 55 | 63 | 4.0 | 10.0 | 0.00 | 0.00 | 0.00 | 80 | 1011.5 |
| 20260510032353 | 55 | 65 | 5.0 | 10.0 | 0.00 | 0.00 | 0.00 | 80 | 1011.6 |
| 20260510031827 | 55 | 59 | 5.0 | 9.0 | 0.00 | 0.00 | 0.00 | 79 | 1011.5 |
| 20260510031325 | 55 | 60 | 4.0 | 9.0 | 0.00 | 0.00 | 0.00 | 79 | 1011.5 |
| 20260510030821 | 55 | 62 | 3.0 | 9.0 | 0.00 | 0.00 | 0.00 | 79 | 1011.6 |
| 20260510030335 | 55 | 65 | 3.0 | 7.0 | 0.00 | 0.00 | 0.00 | 78 | 1011.6 |
| 20260510025830 | 56 | 50 | 4.0 | 7.0 | 0.00 | 0.00 | 0.00 | 78 | 1011.7 |
| 20260510025323 | 56 | 46 | 4.0 | 10.0 | 0.00 | 0.00 | 0.00 | 78 | 1011.6 |
| 20260510024821 | 56 | 47 | 5.0 | 9.0 | 0.00 | 0.00 | 0.00 | 78 | 1011.6 |
| 20260510024319 | 55 | 76 | 5.0 | 9.0 | 0.00 | 0.00 | 0.00 | 79 | 1011.7 |
| 20260510023823 | 55 | 64 | 3.0 | 9.0 | 0.00 | 0.00 | 0.00 | 78 | 1011.7 |
| 20260510023321 | 55 | 76 | 5.0 | 9.0 | 0.00 | 0.00 | 0.00 | 79 | 1011.7 |
| 20260510022815 | 55 | 39 | 4.0 | 8.0 | 0.00 | 0.00 | 0.00 | 79 | 1011.7 |
| 20260510022332 | 55 | 37 | 5.0 | 11.0 | 0.00 | 0.00 | 0.00 | 79 | 1011.8 |
| 20260510021829 | 55 | 51 | 3.0 | 11.0 | 0.00 | 0.00 | 0.00 | 79 | 1011.8 |
| 20260510021325 | 55 | 76 | 2.0 | 5.0 | 0.00 | 0.00 | 0.00 | 78 | 1011.9 |
| 20260510020839 | 55 | 55 | 3.0 | 5.0 | 0.00 | 0.00 | 0.00 | 78 | 1011.8 |
| 20260510020314 | 56 | 84 | 1.0 | 6.0 | 0.00 | 0.00 | 0.00 | 77 | 1011.8 |
| 20260510015830 | 56 | 78 | 2.0 | 6.0 | 0.00 | 0.00 | 0.00 | 77 | 1011.8 |
| 20260510015329 | 56 | 38 | 2.0 | 6.0 | 0.00 | 0.00 | 0.00 | 77 | 1011.9 |
| 20260510014824 | 56 | 40 | 3.0 | 6.0 | 0.00 | 0.00 | 0.00 | 77 | 1011.9 |
| 20260510014323 | 56 | 30 | 3.0 | 6.0 | 0.00 | 0.00 | 0.00 | 77 | 1012.0 |
| 20260510013817 | 56 | 38 | 4.0 | 5.0 | 0.00 | 0.00 | 0.00 | 77 | 1012.0 |
| 20260510013315 | 56 | 62 | 3.0 | 5.0 | 0.00 | 0.00 | 0.00 | 77 | 1012.0 |
| 20260510012830 | 56 | 49 | 2.0 | 4.0 | 0.00 | 0.00 | 0.00 | 77 | 1012.1 |
| 20260510012329 | 56 | 49 | 1.0 | 3.0 | 0.00 | 0.00 | 0.00 | 76 | 1012.1 |
| 20260510011820 | 57 | 49 | 1.0 | 4.0 | 0.00 | 0.00 | 0.00 | 75 | 1012.2 |
| 20260510011317 | 57 | 49 | 1.0 | 5.0 | 0.00 | 0.00 | 0.00 | 74 | 1012.2 |
| 20260510010833 | 57 | 48 | 4.0 | 8.0 | 0.00 | 0.00 | 0.00 | 74 | 1012.2 |
| 20260510010349 | 57 | 34 | 5.0 | 9.0 | 0.00 | 0.00 | 0.00 | 74 | 1012.2 |
| 20260510005825 | 57 | 29 | 4.0 | 10.0 | 0.00 | 0.00 | 0.00 | 74 | 1012.3 |
| 20260510005323 | 57 | 28 | 6.0 | 10.0 | 0.00 | 0.00 | 0.00 | 74 | 1012.2 |
| 20260510004817 | 58 | 30 | 4.0 | 7.0 | 0.00 | 0.00 | 0.00 | 73 | 1012.3 |
| 20260510004314 | 58 | 44 | 4.0 | 6.0 | 0.00 | 0.00 | 0.00 | 73 | 1012.3 |
| 20260510003829 | 58 | 40 | 3.0 | 8.0 | 0.00 | 0.00 | 0.00 | 73 | 1012.4 |
| 20260510003343 | 58 | 38 | 4.0 | 8.0 | 0.00 | 0.00 | 0.00 | 73 | 1012.4 |
| 20260510002818 | 58 | 40 | 3.0 | 6.0 | 0.00 | 0.00 | 0.00 | 72 | 1012.5 |
| 20260510002316 | 58 | 41 | 2.0 | 8.0 | 0.00 | 0.00 | 0.00 | 72 | 1012.5 |
| 20260510001832 | 58 | 28 | 6.0 | 8.0 | 0.00 | 0.00 | 0.00 | 72 | 1012.6 |
| 20260510001330 | 58 | 39 | 4.0 | 9.0 | 0.00 | 0.00 | 0.00 | 72 | 1012.6 |
| 20260510000823 | 58 | 61 | 3.0 | 12.0 | 0.00 | 0.00 | 0.00 | 72 | 1012.7 |
| 20260510000341 | 58 | 38 | 6.0 | 12.0 | 0.00 | 0.00 | 0.00 | 72 | 1012.8 |
| 20260509235815 | 58 | 15 | 2.0 | 9.0 | 0.00 | 0.00 | 0.00 | 72 | 1012.8 |
| 20260509235333 | 58 | 20 | 3.0 | 9.0 | 0.00 | 0.00 | 0.00 | 73 | 1012.9 |
| 20260509234827 | 57 | 42 | 4.0 | 7.0 | 0.00 | 0.00 | 0.00 | 73 | 1012.9 |
| 20260509234323 | 58 | 25 | 1.0 | 4.0 | 0.00 | 0.00 | 0.00 | 73 | 1013.0 |
| 20260509233819 | 58 | 25 | 3.0 | 4.0 | 0.00 | 0.00 | 0.00 | 72 | 1012.9 |
| 20260509233313 | 59 | 29 | 1.0 | 7.0 | 0.00 | 0.00 | 0.00 | 70 | 1013.0 |
| 20260509232828 | 59 | 19 | 5.0 | 7.0 | 0.00 | 0.00 | 0.00 | 70 | 1013.0 |
| 20260509232325 | 59 | 9 | 4.0 | 6.0 | 0.00 | 0.00 | 0.00 | 70 | 1012.9 |
| 20260509231821 | 60 | 9 | 4.0 | 9.0 | 0.00 | 0.00 | 0.00 | 69 | 1013.0 |
| 20260509231338 | 60 | 38 | 6.0 | 9.0 | 0.00 | 0.00 | 0.00 | 68 | 1013.0 |
| 20260509230858 | 60 | 16 | 3.0 | 9.0 | 0.00 | 0.00 | 0.00 | 67 | 1013.0 |
| 20260509230330 | 60 | 31 | 6.0 | 11.0 | 0.00 | 0.00 | 0.00 | 67 | 1013.0 |
| 20260509225824 | 61 | 51 | 5.0 | 11.0 | 0.00 | 0.00 | 0.00 | 67 | 1013.0 |
| 20260509225322 | 61 | 32 | 6.0 | 11.0 | 0.00 | 0.00 | 0.00 | 66 | 1013.0 |
| 20260509224818 | 61 | 31 | 5.0 | 9.0 | 0.00 | 0.00 | 0.00 | 66 | 1013.0 |
| 20260509224336 | 61 | 69 | 5.0 | 8.0 | 0.00 | 0.00 | 0.00 | 66 | 1013.0 |
| 20260509223829 | 61 | 25 | 4.0 | 10.0 | 0.00 | 0.00 | 0.00 | 65 | 1012.9 |
| 20260509223329 | 61 | 28 | 4.0 | 10.0 | 0.00 | 0.00 | 0.00 | 66 | 1012.9 |
| 20260509222824 | 61 | 44 | 5.0 | 7.0 | 0.00 | 0.00 | 0.00 | 65 | 1012.9 |
| 20260509222321 | 61 | 50 | 5.0 | 7.0 | 0.00 | 0.00 | 0.00 | 65 | 1013.0 |
| 20260509221835 | 61 | 32 | 5.0 | 9.0 | 0.00 | 0.00 | 0.00 | 65 | 1013.0 |
| 20260509221332 | 61 | 24 | 5.0 | 9.0 | 0.00 | 0.00 | 0.00 | 66 | 1013.1 |
| 20260509220825 | 61 | 36 | 5.0 | 8.0 | 0.00 | 0.00 | 0.00 | 66 | 1013.0 |
| 20260509220323 | 61 | 40 | 4.0 | 9.0 | 0.00 | 0.00 | 0.00 | 66 | 1013.1 |
| 20260509215818 | 61 | 21 | 4.0 | 9.0 | 0.00 | 0.00 | 0.00 | 66 | 1013.2 |
| 20260509215316 | 61 | 44 | 5.0 | 9.0 | 0.00 | 0.00 | 0.00 | 66 | 1013.2 |
| 20260509214831 | 61 | 36 | 5.0 | 9.0 | 0.00 | 0.00 | 0.00 | 66 | 1013.2 |
| 20260509214331 | 61 | 23 | 4.0 | 9.0 | 0.00 | 0.00 | 0.00 | 67 | 1013.2 |
| 20260509213847 | 61 | 37 | 5.0 | 11.0 | 0.00 | 0.00 | 0.00 | 66 | 1013.2 |
| 20260509213324 | 61 | 44 | 6.0 | 11.0 | 0.00 | 0.00 | 0.00 | 66 | 1013.2 |
| 20260509212818 | 61 | 32 | 4.0 | 8.0 | 0.00 | 0.00 | 0.00 | 67 | 1013.2 |
| 20260509212338 | 61 | 61 | 4.0 | 9.0 | 0.00 | 0.00 | 0.00 | 67 | 1013.2 |
| 20260509211854 | 61 | 14 | 5.0 | 9.0 | 0.00 | 0.00 | 0.00 | 68 | 1013.3 |
| 20260509211331 | 61 | 14 | 4.0 | 8.0 | 0.00 | 0.00 | 0.00 | 68 | 1013.2 |
| 20260509210827 | 61 | 36 | 3.0 | 8.0 | 0.00 | 0.00 | 0.00 | 67 | 1013.1 |
| 20260509210326 | 62 | 38 | 3.0 | 9.0 | 0.00 | 0.00 | 0.00 | 67 | 1013.1 |
| 20260509205821 | 62 | 34 | 5.0 | 10.0 | 0.00 | 0.00 | 0.00 | 67 | 1013.1 |
| 20260509205321 | 62 | 37 | 6.0 | 10.0 | 0.00 | 0.00 | 0.00 | 67 | 1013.2 |
| 20260509204817 | 62 | 31 | 4.0 | 8.0 | 0.00 | 0.00 | 0.00 | 67 | 1013.2 |
| 20260509204315 | 62 | 19 | 4.0 | 9.0 | 0.00 | 0.00 | 0.00 | 67 | 1013.2 |
| 20260509203827 | 62 | 26 | 4.0 | 9.0 | 0.00 | 0.00 | 0.00 | 67 | 1013.2 |
| 20260509203327 | 62 | 34 | 4.0 | 7.0 | 0.00 | 0.00 | 0.00 | 67 | 1013.2 |
| 20260509202822 | 62 | 23 | 5.0 | 9.0 | 0.00 | 0.00 | 0.00 | 68 | 1013.3 |
| 20260509202322 | 62 | 42 | 5.0 | 9.0 | 0.00 | 0.00 | 0.00 | 68 | 1013.4 |
| 20260509201819 | 62 | 49 | 6.0 | 11.0 | 0.00 | 0.00 | 0.00 | 69 | 1013.4 |
| 20260509201316 | 62 | 360 | 5.0 | 11.0 | 0.00 | 0.00 | 0.00 | 70 | 1013.4 |
| 20260509200833 | 61 | 12 | 4.0 | 9.0 | 0.00 | 0.00 | 0.00 | 71 | 1013.4 |
| 20260509200330 | 61 | 42 | 3.0 | 6.0 | 0.00 | 0.00 | 0.00 | 71 | 1013.4 |
| 20260509195827 | 62 | 49 | 3.0 | 5.0 | 0.00 | 0.00 | 0.00 | 71 | 1013.4 |
| 20260509195326 | 62 | 11 | 3.0 | 5.0 | 0.00 | 0.00 | 0.00 | 70 | 1013.2 |
| 20260509194822 | 62 | 351 | 2.0 | 8.0 | 0.00 | 0.00 | 0.00 | 70 | 1013.2 |
| 20260509194341 | 63 | 26 | 4.0 | 8.0 | 0.00 | 0.00 | 0.00 | 70 | 1013.2 |
| 20260509193837 | 63 | 360 | 3.0 | 6.0 | 0.00 | 0.00 | 0.00 | 69 | 1013.2 |
| 20260509193356 | 64 | 38 | 4.0 | 8.0 | 0.00 | 0.00 | 0.00 | 68 | 1013.1 |
| 20260509192832 | 64 | 9 | 3.0 | 8.0 | 0.00 | 0.00 | 0.00 | 68 | 1013.1 |
| 20260509192330 | 64 | 41 | 3.0 | 6.0 | 0.00 | 0.00 | 0.00 | 68 | 1013.0 |
| 20260509191825 | 65 | 42 | 3.0 | 6.0 | 0.00 | 0.00 | 0.00 | 68 | 1013.1 |
| 20260509191322 | 65 | 24 | 3.0 | 6.0 | 0.00 | 0.00 | 0.00 | 67 | 1013.1 |
| 20260509190838 | 65 | 11 | 3.0 | 7.0 | 0.00 | 0.00 | 0.00 | 66 | 1013.0 |
| 20260509190315 | 66 | 27 | 4.0 | 7.0 | 0.00 | 0.00 | 0.00 | 66 | 1013.0 |
| 20260509185832 | 66 | 9 | 3.0 | 10.0 | 0.00 | 0.00 | 0.00 | 65 | 1013.0 |
| 20260509185330 | 66 | 26 | 5.0 | 10.0 | 0.00 | 0.00 | 0.00 | 65 | 1012.9 |
| 20260509184825 | 66 | 15 | 4.0 | 8.0 | 0.00 | 0.00 | 0.00 | 64 | 1012.9 |
| 20260509184323 | 67 | 24 | 4.0 | 8.0 | 0.00 | 0.00 | 0.00 | 65 | 1012.9 |
| 20260509183819 | 67 | 30 | 4.0 | 7.0 | 0.00 | 0.00 | 0.00 | 65 | 1012.9 |
| 20260509183318 | 67 | 32 | 3.0 | 7.0 | 0.00 | 0.00 | 0.00 | 64 | 1012.9 |
| 20260509182833 | 67 | 36 | 4.0 | 6.0 | 0.00 | 0.00 | 0.00 | 64 | 1012.9 |
| 20260509182351 | 68 | 36 | 5.0 | 6.0 | 0.00 | 0.00 | 0.00 | 64 | 1012.9 |
| 20260509181828 | 68 | 42 | 4.0 | 8.0 | 0.00 | 0.00 | 0.00 | 62 | 1012.9 |
| 20260509181326 | 68 | 36 | 4.0 | 8.0 | 0.00 | 0.00 | 0.00 | 63 | 1012.9 |
| 20260509180822 | 68 | 26 | 3.0 | 8.0 | 0.00 | 0.00 | 0.00 | 63 | 1012.9 |
| 20260509180322 | 69 | 25 | 4.0 | 8.0 | 0.00 | 0.00 | 0.00 | 62 | 1012.9 |
| 20260509175818 | 69 | 15 | 4.0 | 7.0 | 0.00 | 0.00 | 0.00 | 61 | 1012.9 |
| 20260509175335 | 70 | 51 | 3.0 | 6.0 | 0.00 | 0.00 | 0.00 | 63 | 1012.9 |
| 20260509174831 | 70 | 9 | 3.0 | 6.0 | 0.00 | 0.00 | 0.00 | 61 | 1012.9 |
| 20260509174329 | 70 | 32 | 2.0 | 8.0 | 0.00 | 0.00 | 0.00 | 63 | 1012.9 |
| 20260509173825 | 70 | 80 | 4.0 | 9.0 | 0.00 | 0.00 | 0.00 | 61 | 1012.9 |